sensor_id;sensor_type;location;lat;lon;timestamp;pressure;altitude;pressure_sealevel;temperature;humidity
45071;BME280;30836;48.906;9.140;2023-02-03T00:00:34;999.06;;;12.06;51.20
45071;BME280;30836;48.906;9.140;2023-02-03T00:01:34;999.04;;;12.06;50.94
45071;BME280;30836;48.906;9.140;2023-02-03T00:02:35;999.04;;;12.10;50.94
45071;BME280;30836;48.906;9.140;2023-02-03T00:03:35;999.00;;;12.11;50.76
45071;BME280;30836;48.906;9.140;2023-02-03T00:04:35;999.00;;;12.20;50.61
45071;BME280;30836;48.906;9.140;2023-02-03T00:05:36;998.98;;;12.25;50.48
45071;BME280;30836;48.906;9.140;2023-02-03T00:06:37;998.95;;;12.25;50.76
45071;BME280;30836;48.906;9.140;2023-02-03T00:07:37;999.00;;;12.25;50.68
45071;BME280;30836;48.906;9.140;2023-02-03T00:08:39;999.08;;;12.19;51.05
45071;BME280;30836;48.906;9.140;2023-02-03T00:09:40;999.04;;;12.09;51.28
45071;BME280;30836;48.906;9.140;2023-02-03T00:10:40;999.00;;;12.07;51.13
45071;BME280;30836;48.906;9.140;2023-02-03T00:11:41;998.91;;;12.05;51.28
45071;BME280;30836;48.906;9.140;2023-02-03T00:12:41;998.98;;;11.99;51.53
45071;BME280;30836;48.906;9.140;2023-02-03T00:13:42;998.97;;;11.87;52.31
45071;BME280;30836;48.906;9.140;2023-02-03T00:14:42;999.00;;;11.75;52.32
45071;BME280;30836;48.906;9.140;2023-02-03T00:15:43;999.00;;;11.70;52.45
45071;BME280;30836;48.906;9.140;2023-02-03T00:16:43;998.98;;;11.73;52.05
45071;BME280;30836;48.906;9.140;2023-02-03T00:17:43;998.98;;;11.76;52.39
45071;BME280;30836;48.906;9.140;2023-02-03T00:18:44;998.97;;;11.78;52.29
45071;BME280;30836;48.906;9.140;2023-02-03T00:19:44;999.00;;;11.82;52.03
45071;BME280;30836;48.906;9.140;2023-02-03T00:20:45;998.97;;;11.82;52.18
45071;BME280;30836;48.906;9.140;2023-02-03T00:21:45;998.93;;;11.79;52.48
45071;BME280;30836;48.906;9.140;2023-02-03T00:22:46;998.95;;;11.74;52.61
45071;BME280;30836;48.906;9.140;2023-02-03T00:23:46;999.00;;;11.68;52.76
45071;BME280;30836;48.906;9.140;2023-02-03T00:24:47;998.97;;;11.64;53.02
45071;BME280;30836;48.906;9.140;2023-02-03T00:25:47;999.02;;;11.60;53.02
45071;BME280;30836;48.906;9.140;2023-02-03T00:26:48;998.95;;;11.52;53.49
45071;BME280;30836;48.906;9.140;2023-02-03T00:27:48;998.93;;;11.45;53.60
45071;BME280;30836;48.906;9.140;2023-02-03T00:28:49;998.87;;;11.40;53.75
45071;BME280;30836;48.906;9.140;2023-02-03T00:29:49;998.87;;;11.42;53.44
45071;BME280;30836;48.906;9.140;2023-02-03T00:30:50;998.87;;;11.49;53.20
45071;BME280;30836;48.906;9.140;2023-02-03T00:31:51;998.91;;;11.56;53.25
45071;BME280;30836;48.906;9.140;2023-02-03T00:32:51;998.93;;;11.64;52.88
45071;BME280;30836;48.906;9.140;2023-02-03T00:33:02;999.18;;;11.68;52.91
45071;BME280;30836;48.906;9.140;2023-02-03T00:34:03;999.04;;;11.68;53.24
45071;BME280;30836;48.906;9.140;2023-02-03T00:35:03;998.95;;;11.59;53.71
45071;BME280;30836;48.906;9.140;2023-02-03T00:36:05;999.06;;;11.46;53.93
45071;BME280;30836;48.906;9.140;2023-02-03T00:37:06;999.00;;;11.45;53.73
45071;BME280;30836;48.906;9.140;2023-02-03T00:38:06;999.00;;;11.48;53.40
45071;BME280;30836;48.906;9.140;2023-02-03T00:39:06;999.04;;;11.48;53.61
45071;BME280;30836;48.906;9.140;2023-02-03T00:40:07;999.06;;;11.40;54.20
45071;BME280;30836;48.906;9.140;2023-02-03T00:41:08;999.02;;;11.35;53.98
45071;BME280;30836;48.906;9.140;2023-02-03T00:42:08;999.10;;;11.37;53.97
45071;BME280;30836;48.906;9.140;2023-02-03T00:43:09;999.12;;;11.37;53.98
45071;BME280;30836;48.906;9.140;2023-02-03T00:44:09;999.10;;;11.44;53.86
45071;BME280;30836;48.906;9.140;2023-02-03T00:45:10;999.42;;;11.51;53.39
45071;BME280;30836;48.906;9.140;2023-02-03T00:46:10;999.30;;;11.45;54.33
45071;BME280;30836;48.906;9.140;2023-02-03T00:47:11;999.24;;;11.36;54.21
45071;BME280;30836;48.906;9.140;2023-02-03T00:48:11;999.22;;;11.38;53.93
45071;BME280;30836;48.906;9.140;2023-02-03T00:49:12;999.18;;;11.40;54.05
45071;BME280;30836;48.906;9.140;2023-02-03T00:50:12;999.26;;;11.35;54.39
45071;BME280;30836;48.906;9.140;2023-02-03T00:51:13;999.14;;;11.31;54.38
45071;BME280;30836;48.906;9.140;2023-02-03T00:52:13;999.18;;;11.33;54.16
45071;BME280;30836;48.906;9.140;2023-02-03T00:53:14;999.24;;;11.33;54.28
45071;BME280;30836;48.906;9.140;2023-02-03T00:54:14;999.18;;;11.30;54.57
45071;BME280;30836;48.906;9.140;2023-02-03T00:55:15;999.10;;;11.30;54.40
45071;BME280;30836;48.906;9.140;2023-02-03T00:56:15;999.10;;;11.37;54.12
45071;BME280;30836;48.906;9.140;2023-02-03T00:57:16;999.14;;;11.32;54.73
45071;BME280;30836;48.906;9.140;2023-02-03T00:58:16;999.02;;;11.15;55.07
45071;BME280;30836;48.906;9.140;2023-02-03T00:59:17;999.24;;;11.08;55.20
45071;BME280;30836;48.906;9.140;2023-02-03T00:59:27;999.08;;;10.90;55.14
45071;BME280;30836;48.906;9.140;2023-02-03T01:00:27;999.00;;;10.88;55.58
45071;BME280;30836;48.906;9.140;2023-02-03T01:01:27;999.08;;;10.86;55.65
45071;BME280;30836;48.906;9.140;2023-02-03T01:02:28;999.08;;;10.91;55.26
45071;BME280;30836;48.906;9.140;2023-02-03T01:03:29;999.12;;;10.95;55.23
45071;BME280;30836;48.906;9.140;2023-02-03T01:04:29;999.16;;;10.99;55.17
45071;BME280;30836;48.906;9.140;2023-02-03T01:05:29;999.08;;;11.06;55.10
45071;BME280;30836;48.906;9.140;2023-02-03T01:06:30;999.12;;;11.12;54.86
45071;BME280;30836;48.906;9.140;2023-02-03T01:07:31;999.28;;;11.12;55.15
45071;BME280;30836;48.906;9.140;2023-02-03T01:08:31;999.12;;;11.08;55.21
45071;BME280;30836;48.906;9.140;2023-02-03T01:09:33;999.06;;;11.09;55.00
45071;BME280;30836;48.906;9.140;2023-02-03T01:10:34;999.00;;;11.14;54.89
45071;BME280;30836;48.906;9.140;2023-02-03T01:11:37;998.97;;;11.19;54.82
45071;BME280;30836;48.906;9.140;2023-02-03T01:12:37;998.93;;;11.19;54.85
45071;BME280;30836;48.906;9.140;2023-02-03T01:13:38;998.87;;;11.16;54.94
45071;BME280;30836;48.906;9.140;2023-02-03T01:14:38;998.79;;;11.17;54.96
45071;BME280;30836;48.906;9.140;2023-02-03T01:16:46;998.73;;;11.32;54.25
45071;BME280;30836;48.906;9.140;2023-02-03T01:17:46;998.77;;;11.31;54.62
45071;BME280;30836;48.906;9.140;2023-02-03T01:18:47;998.71;;;11.32;54.61
45071;BME280;30836;48.906;9.140;2023-02-03T01:19:49;998.77;;;11.35;54.51
45071;BME280;30836;48.906;9.140;2023-02-03T01:20:50;998.73;;;11.34;54.48
45071;BME280;30836;48.906;9.140;2023-02-03T01:21:51;998.81;;;11.40;53.93
45071;BME280;30836;48.906;9.140;2023-02-03T01:22:51;998.85;;;11.49;53.92
45071;BME280;30836;48.906;9.140;2023-02-03T01:23:52;998.83;;;11.42;54.61
45071;BME280;30836;48.906;9.140;2023-02-03T01:24:53;998.83;;;11.36;54.24
45071;BME280;30836;48.906;9.140;2023-02-03T01:25:54;998.81;;;11.39;54.31
45071;BME280;30836;48.906;9.140;2023-02-03T01:26:54;998.85;;;11.40;54.15
45071;BME280;30836;48.906;9.140;2023-02-03T01:27:54;998.87;;;11.42;54.26
45071;BME280;30836;48.906;9.140;2023-02-03T01:28:56;998.81;;;11.37;54.43
45071;BME280;30836;48.906;9.140;2023-02-03T01:29:58;998.91;;;11.34;54.41
45071;BME280;30836;48.906;9.140;2023-02-03T01:32:09;998.79;;;11.29;54.73
45071;BME280;30836;48.906;9.140;2023-02-03T01:33:09;998.73;;;11.13;55.38
45071;BME280;30836;48.906;9.140;2023-02-03T01:34:11;998.73;;;10.98;55.49
45071;BME280;30836;48.906;9.140;2023-02-03T01:35:13;998.65;;;10.91;55.71
45071;BME280;30836;48.906;9.140;2023-02-03T01:36:14;998.67;;;10.93;55.28
45071;BME280;30836;48.906;9.140;2023-02-03T01:37:15;998.65;;;11.04;54.82
45071;BME280;30836;48.906;9.140;2023-02-03T01:38:16;998.69;;;11.23;54.36
45071;BME280;30836;48.906;9.140;2023-02-03T01:39:16;998.65;;;11.40;53.77
45071;BME280;30836;48.906;9.140;2023-02-03T01:40:17;998.65;;;11.55;53.60
45071;BME280;30836;48.906;9.140;2023-02-03T01:41:19;998.63;;;11.66;53.32
45071;BME280;30836;48.906;9.140;2023-02-03T01:42:21;998.63;;;11.75;52.91
45071;BME280;30836;48.906;9.140;2023-02-03T01:45:34;998.73;;;11.84;53.16
45071;BME280;30836;48.906;9.140;2023-02-03T01:46:36;998.73;;;11.82;53.08
45071;BME280;30836;48.906;9.140;2023-02-03T01:47:43;998.71;;;11.75;53.36
45071;BME280;30836;48.906;9.140;2023-02-03T01:48:48;998.77;;;11.65;53.38
45071;BME280;30836;48.906;9.140;2023-02-03T01:49:55;998.81;;;11.66;53.29
45071;BME280;30836;48.906;9.140;2023-02-03T01:51:00;998.83;;;11.69;53.25
45071;BME280;30836;48.906;9.140;2023-02-03T01:52:03;998.97;;;11.64;53.63
45071;BME280;30836;48.906;9.140;2023-02-03T01:53:06;998.89;;;11.60;53.58
45071;BME280;30836;48.906;9.140;2023-02-03T01:54:14;998.79;;;11.60;53.58
45071;BME280;30836;48.906;9.140;2023-02-03T01:55:20;998.79;;;11.55;53.73
45071;BME280;30836;48.906;9.140;2023-02-03T01:56:26;998.75;;;11.45;54.09
45071;BME280;30836;48.906;9.140;2023-02-03T01:57:33;998.75;;;11.31;54.44
45071;BME280;30836;48.906;9.140;2023-02-03T01:58:43;998.75;;;11.27;54.16
45071;BME280;30836;48.906;9.140;2023-02-03T01:59:47;998.69;;;11.36;53.76
45071;BME280;30836;48.906;9.140;2023-02-03T02:00:49;998.83;;;11.38;54.16
45071;BME280;30836;48.906;9.140;2023-02-03T02:01:01;998.67;;;11.32;54.13
45071;BME280;30836;48.906;9.140;2023-02-03T02:02:02;998.67;;;11.31;54.20
45071;BME280;30836;48.906;9.140;2023-02-03T02:03:04;998.65;;;11.31;54.10
45071;BME280;30836;48.906;9.140;2023-02-03T02:04:07;998.63;;;11.34;53.95
45071;BME280;30836;48.906;9.140;2023-02-03T02:06:18;998.67;;;11.37;53.83
45071;BME280;30836;48.906;9.140;2023-02-03T02:07:19;998.65;;;11.28;54.68
45071;BME280;30836;48.906;9.140;2023-02-03T02:08:19;998.55;;;11.12;55.10
45071;BME280;30836;48.906;9.140;2023-02-03T02:09:21;998.49;;;11.08;54.70
45071;BME280;30836;48.906;9.140;2023-02-03T02:10:23;998.51;;;11.16;54.58
45071;BME280;30836;48.906;9.140;2023-02-03T02:11:24;998.45;;;11.16;54.70
45071;BME280;30836;48.906;9.140;2023-02-03T02:12:24;998.36;;;11.09;54.99
45071;BME280;30836;48.906;9.140;2023-02-03T02:13:25;998.24;;;11.10;54.54
45071;BME280;30836;48.906;9.140;2023-02-03T02:14:27;998.16;;;11.20;54.31
45071;BME280;30836;48.906;9.140;2023-02-03T02:18:02;998.06;;;11.45;53.83
45071;BME280;30836;48.906;9.140;2023-02-03T02:24:09;998.14;;;11.46;53.63
45071;BME280;30836;48.906;9.140;2023-02-03T02:27:32;998.16;;;11.46;53.68
45071;BME280;30836;48.906;9.140;2023-02-03T02:33:12;998.08;;;11.55;53.72
45071;BME280;30836;48.906;9.140;2023-02-03T02:34:14;997.98;;;11.49;54.10
45071;BME280;30836;48.906;9.140;2023-02-03T02:36:40;997.77;;;11.35;54.34
45071;BME280;30836;48.906;9.140;2023-02-03T02:37:49;997.71;;;11.33;54.20
45071;BME280;30836;48.906;9.140;2023-02-03T02:38:58;997.71;;;11.35;53.99
45071;BME280;30836;48.906;9.140;2023-02-03T02:43:09;997.63;;;11.31;54.49
45071;BME280;30836;48.906;9.140;2023-02-03T02:44:43;997.89;;;11.35;54.13
45071;BME280;30836;48.906;9.140;2023-02-03T02:45:51;997.96;;;11.44;53.63
45071;BME280;30836;48.906;9.140;2023-02-03T02:46:59;997.98;;;11.60;53.47
45071;BME280;30836;48.906;9.140;2023-02-03T02:48:06;998.08;;;11.65;52.94
45071;BME280;30836;48.906;9.140;2023-02-03T02:50:19;998.12;;;11.77;52.96
45071;BME280;30836;48.906;9.140;2023-02-03T02:51:24;998.14;;;11.79;53.24
45071;BME280;30836;48.906;9.140;2023-02-03T02:52:29;998.14;;;11.64;53.79
45071;BME280;30836;48.906;9.140;2023-02-03T02:53:34;998.18;;;11.44;54.40
45071;BME280;30836;48.906;9.140;2023-02-03T02:54:43;998.26;;;11.33;54.32
45071;BME280;30836;48.906;9.140;2023-02-03T02:55:47;998.22;;;11.32;54.24
45071;BME280;30836;48.906;9.140;2023-02-03T02:56:48;998.20;;;11.38;53.80
45071;BME280;30836;48.906;9.140;2023-02-03T02:57:54;998.16;;;11.45;53.72
45071;BME280;30836;48.906;9.140;2023-02-03T02:58:58;998.20;;;11.56;53.44
45071;BME280;30836;48.906;9.140;2023-02-03T03:00:03;998.22;;;11.69;52.99
45071;BME280;30836;48.906;9.140;2023-02-03T03:01:05;998.28;;;11.76;52.81
45071;BME280;30836;48.906;9.140;2023-02-03T03:02:09;998.18;;;11.74;53.13
45071;BME280;30836;48.906;9.140;2023-02-03T03:04:19;998.02;;;11.87;52.38
45071;BME280;30836;48.906;9.140;2023-02-03T03:05:23;997.93;;;11.98;51.99
45071;BME280;30836;48.906;9.140;2023-02-03T03:07:34;997.87;;;12.16;51.63
45071;BME280;30836;48.906;9.140;2023-02-03T03:09:49;997.95;;;12.35;51.38
45071;BME280;30836;48.906;9.140;2023-02-03T03:10:54;997.91;;;12.32;51.43
45071;BME280;30836;48.906;9.140;2023-02-03T03:11:58;997.93;;;12.34;51.21
45071;BME280;30836;48.906;9.140;2023-02-03T03:13:10;997.91;;;12.39;51.00
45071;BME280;30836;48.906;9.140;2023-02-03T03:14:15;997.91;;;12.45;50.94
45071;BME280;30836;48.906;9.140;2023-02-03T03:15:19;997.87;;;12.58;50.46
45071;BME280;30836;48.906;9.140;2023-02-03T03:16:27;997.83;;;12.72;50.08
45071;BME280;30836;48.906;9.140;2023-02-03T03:17:33;997.83;;;12.81;49.98
45071;BME280;30836;48.906;9.140;2023-02-03T03:18:40;997.81;;;12.87;49.93
45071;BME280;30836;48.906;9.140;2023-02-03T03:19:49;997.79;;;12.92;49.61
45071;BME280;30836;48.906;9.140;2023-02-03T03:20:54;997.89;;;12.99;49.42
45071;BME280;30836;48.906;9.140;2023-02-03T03:22:00;997.85;;;12.99;49.72
45071;BME280;30836;48.906;9.140;2023-02-03T03:23:06;997.87;;;12.95;49.80
45071;BME280;30836;48.906;9.140;2023-02-03T03:24:10;997.89;;;12.96;49.72
45071;BME280;30836;48.906;9.140;2023-02-03T03:25:17;997.95;;;12.97;49.85
45071;BME280;30836;48.906;9.140;2023-02-03T03:27:31;998.02;;;12.87;49.92
45071;BME280;30836;48.906;9.140;2023-02-03T03:29:47;998.06;;;13.19;48.83
45071;BME280;30836;48.906;9.140;2023-02-03T03:30:52;998.06;;;13.32;48.42
45071;BME280;30836;48.906;9.140;2023-02-03T03:31:52;998.10;;;13.39;48.35
45071;BME280;30836;48.906;9.140;2023-02-03T03:32:53;998.16;;;13.35;48.55
45071;BME280;30836;48.906;9.140;2023-02-03T03:33:55;998.16;;;13.26;48.98
45071;BME280;30836;48.906;9.140;2023-02-03T03:34:56;998.22;;;13.21;48.70
45071;BME280;30836;48.906;9.140;2023-02-03T03:38:15;998.14;;;13.31;48.51
45071;BME280;30836;48.906;9.140;2023-02-03T03:40:23;998.22;;;13.24;48.66
45071;BME280;30836;48.906;9.140;2023-02-03T03:42:40;998.30;;;13.39;48.03
45071;BME280;30836;48.906;9.140;2023-02-03T03:43:48;998.30;;;13.46;48.19
45071;BME280;30836;48.906;9.140;2023-02-03T03:44:01;998.34;;;13.42;48.19
45071;BME280;30836;48.906;9.140;2023-02-03T03:46:16;998.38;;;13.40;48.38
45071;BME280;30836;48.906;9.140;2023-02-03T03:48:33;998.42;;;13.35;48.21
45071;BME280;30836;48.906;9.140;2023-02-03T03:49:39;998.47;;;13.42;48.13
45071;BME280;30836;48.906;9.140;2023-02-03T03:50:45;998.49;;;13.51;47.99
45071;BME280;30836;48.906;9.140;2023-02-03T03:52:00;998.45;;;13.53;48.05
45071;BME280;30836;48.906;9.140;2023-02-03T03:53:05;998.45;;;13.49;48.19
45071;BME280;30836;48.906;9.140;2023-02-03T03:54:09;998.45;;;13.51;47.83
45071;BME280;30836;48.906;9.140;2023-02-03T03:55:13;998.51;;;13.58;47.54
45071;BME280;30836;48.906;9.140;2023-02-03T03:56:16;998.53;;;13.72;47.24
45071;BME280;30836;48.906;9.140;2023-02-03T03:57:28;998.55;;;13.81;46.99
45071;BME280;30836;48.906;9.140;2023-02-03T03:58:33;998.59;;;13.94;46.69
45071;BME280;30836;48.906;9.140;2023-02-03T03:58:47;998.59;;;14.19;46.62
45071;BME280;30836;48.906;9.140;2023-02-03T03:59:49;998.59;;;14.19;46.48
45071;BME280;30836;48.906;9.140;2023-02-03T04:00:50;998.63;;;14.07;46.97
45071;BME280;30836;48.906;9.140;2023-02-03T04:01:53;998.63;;;13.88;47.16
45071;BME280;30836;48.906;9.140;2023-02-03T04:02:54;998.59;;;13.78;47.41
45071;BME280;30836;48.906;9.140;2023-02-03T04:03:58;998.65;;;13.71;47.60
45071;BME280;30836;48.906;9.140;2023-02-03T04:05:02;998.63;;;13.64;47.59
45071;BME280;30836;48.906;9.140;2023-02-03T04:06:04;998.61;;;13.49;48.42
45071;BME280;30836;48.906;9.140;2023-02-03T04:07:05;998.61;;;13.25;49.01
45071;BME280;30836;48.906;9.140;2023-02-03T04:08:05;998.59;;;13.01;49.88
45071;BME280;30836;48.906;9.140;2023-02-03T04:09:06;998.57;;;12.91;49.91
45071;BME280;30836;48.906;9.140;2023-02-03T04:10:10;998.55;;;12.98;49.47
45071;BME280;30836;48.906;9.140;2023-02-03T04:11:15;998.53;;;13.08;49.42
45071;BME280;30836;48.906;9.140;2023-02-03T04:12:20;998.51;;;13.19;49.40
45071;BME280;30836;48.906;9.140;2023-02-03T04:13:23;998.59;;;13.28;49.19
45071;BME280;30836;48.906;9.140;2023-02-03T04:14:24;998.63;;;13.31;49.45
45071;BME280;30836;48.906;9.140;2023-02-03T04:15:24;998.61;;;13.32;49.31
45071;BME280;30836;48.906;9.140;2023-02-03T04:16:25;998.67;;;13.31;49.47
45071;BME280;30836;48.906;9.140;2023-02-03T04:17:25;998.73;;;13.14;50.57
45071;BME280;30836;48.906;9.140;2023-02-03T04:18:26;998.67;;;12.98;50.65
45071;BME280;30836;48.906;9.140;2023-02-03T04:19:26;998.63;;;12.94;50.80
45071;BME280;30836;48.906;9.140;2023-02-03T04:20:27;998.61;;;12.92;50.70
45071;BME280;30836;48.906;9.140;2023-02-03T04:21:29;998.61;;;12.86;51.02
45071;BME280;30836;48.906;9.140;2023-02-03T04:22:29;998.63;;;12.84;51.04
45071;BME280;30836;48.906;9.140;2023-02-03T04:23:29;998.61;;;12.91;50.77
45071;BME280;30836;48.906;9.140;2023-02-03T04:24:30;998.61;;;12.99;50.60
45071;BME280;30836;48.906;9.140;2023-02-03T04:25:30;998.55;;;13.14;50.07
45071;BME280;30836;48.906;9.140;2023-02-03T04:26:31;998.55;;;13.27;50.03
45071;BME280;30836;48.906;9.140;2023-02-03T04:27:31;998.53;;;13.30;50.37
45071;BME280;30836;48.906;9.140;2023-02-03T04:28:32;998.51;;;13.18;50.92
45071;BME280;30836;48.906;9.140;2023-02-03T04:29:33;998.49;;;13.00;51.28
45071;BME280;30836;48.906;9.140;2023-02-03T04:30:33;998.43;;;12.95;51.30
45071;BME280;30836;48.906;9.140;2023-02-03T04:31:34;998.42;;;12.95;51.22
45071;BME280;30836;48.906;9.140;2023-02-03T04:32:34;998.47;;;12.98;51.22
45071;BME280;30836;48.906;9.140;2023-02-03T04:33:35;998.47;;;13.07;50.90
45071;BME280;30836;48.906;9.140;2023-02-03T04:34:35;998.47;;;13.13;50.86
45071;BME280;30836;48.906;9.140;2023-02-03T04:35:36;998.45;;;13.16;51.00
45071;BME280;30836;48.906;9.140;2023-02-03T04:36:36;998.42;;;13.14;51.06
45071;BME280;30836;48.906;9.140;2023-02-03T04:37:36;998.43;;;13.07;51.41
45071;BME280;30836;48.906;9.140;2023-02-03T04:38:37;998.43;;;13.03;51.41
45071;BME280;30836;48.906;9.140;2023-02-03T04:39:37;998.45;;;12.97;51.39
45071;BME280;30836;48.906;9.140;2023-02-03T04:40:38;998.45;;;12.82;52.10
45071;BME280;30836;48.906;9.140;2023-02-03T04:41:38;998.42;;;12.71;52.42
45071;BME280;30836;48.906;9.140;2023-02-03T04:42:39;998.42;;;12.66;52.27
45071;BME280;30836;48.906;9.140;2023-02-03T04:43:40;998.45;;;12.64;52.57
45071;BME280;30836;48.906;9.140;2023-02-03T04:44:40;998.45;;;12.61;52.53
45071;BME280;30836;48.906;9.140;2023-02-03T04:45:40;998.55;;;12.61;52.48
45071;BME280;30836;48.906;9.140;2023-02-03T04:46:41;998.47;;;12.54;52.96
45071;BME280;30836;48.906;9.140;2023-02-03T04:47:41;998.43;;;12.43;52.98
45071;BME280;30836;48.906;9.140;2023-02-03T04:48:42;998.43;;;12.40;53.23
45071;BME280;30836;48.906;9.140;2023-02-03T04:49:42;998.47;;;12.35;53.14
45071;BME280;30836;48.906;9.140;2023-02-03T04:50:43;998.42;;;12.37;52.96
45071;BME280;30836;48.906;9.140;2023-02-03T04:51:43;998.49;;;12.37;53.06
45071;BME280;30836;48.906;9.140;2023-02-03T04:52:44;998.42;;;12.25;53.78
45071;BME280;30836;48.906;9.140;2023-02-03T04:53:44;998.32;;;12.11;53.87
45071;BME280;30836;48.906;9.140;2023-02-03T04:54:44;998.24;;;12.06;53.71
45071;BME280;30836;48.906;9.140;2023-02-03T04:55:45;998.22;;;12.09;53.60
45071;BME280;30836;48.906;9.140;2023-02-03T04:56:47;998.26;;;12.16;53.28
45071;BME280;30836;48.906;9.140;2023-02-03T04:57:47;998.24;;;12.25;53.00
45071;BME280;30836;48.906;9.140;2023-02-03T04:58:48;998.22;;;12.30;53.17
45071;BME280;30836;48.906;9.140;2023-02-03T04:59:48;998.22;;;12.22;53.55
45071;BME280;30836;48.906;9.140;2023-02-03T05:00:48;998.22;;;12.15;53.48
45071;BME280;30836;48.906;9.140;2023-02-03T05:01:49;998.22;;;12.17;53.57
45071;BME280;30836;48.906;9.140;2023-02-03T05:02:49;998.22;;;12.16;53.54
45071;BME280;30836;48.906;9.140;2023-02-03T05:03:50;998.24;;;12.14;53.78
45071;BME280;30836;48.906;9.140;2023-02-03T05:04:50;998.24;;;12.16;53.75
45071;BME280;30836;48.906;9.140;2023-02-03T05:05:50;998.28;;;12.19;53.48
45071;BME280;30836;48.906;9.140;2023-02-03T05:06:51;998.38;;;12.20;53.64
45071;BME280;30836;48.906;9.140;2023-02-03T05:07:51;998.36;;;12.18;54.17
45071;BME280;30836;48.906;9.140;2023-02-03T05:08:52;998.36;;;12.20;53.73
45071;BME280;30836;48.906;9.140;2023-02-03T05:09:52;998.36;;;12.26;53.89
45071;BME280;30836;48.906;9.140;2023-02-03T05:10:53;998.34;;;12.18;54.44
45071;BME280;30836;48.906;9.140;2023-02-03T05:11:53;998.36;;;12.04;54.78
45071;BME280;30836;48.906;9.140;2023-02-03T05:12:53;998.45;;;11.97;54.84
45071;BME280;30836;48.906;9.140;2023-02-03T05:13:54;998.47;;;11.98;54.68
45071;BME280;30836;48.906;9.140;2023-02-03T05:14:54;998.49;;;12.03;54.65
45071;BME280;30836;48.906;9.140;2023-02-03T05:15:55;998.47;;;12.11;54.43
45071;BME280;30836;48.906;9.140;2023-02-03T05:16:55;998.51;;;12.28;53.67
45071;BME280;30836;48.906;9.140;2023-02-03T05:17:56;998.53;;;12.45;53.70
45071;BME280;30836;48.906;9.140;2023-02-03T05:18:56;998.59;;;12.52;53.50
45071;BME280;30836;48.906;9.140;2023-02-03T05:19:56;998.61;;;12.55;53.58
45071;BME280;30836;48.906;9.140;2023-02-03T05:20:57;998.57;;;12.53;53.75
45071;BME280;30836;48.906;9.140;2023-02-03T05:21:57;998.55;;;12.46;53.69
45071;BME280;30836;48.906;9.140;2023-02-03T05:22:58;998.47;;;12.37;54.11
45071;BME280;30836;48.906;9.140;2023-02-03T05:23:58;998.47;;;12.29;54.01
45071;BME280;30836;48.906;9.140;2023-02-03T05:24:59;998.43;;;12.19;54.42
45071;BME280;30836;48.906;9.140;2023-02-03T05:25:59;998.47;;;12.07;54.76
45071;BME280;30836;48.906;9.140;2023-02-03T05:26:59;998.45;;;12.01;54.58
45071;BME280;30836;48.906;9.140;2023-02-03T05:28:00;998.81;;;11.92;54.81
45071;BME280;30836;48.906;9.140;2023-02-03T05:29:00;998.63;;;11.75;55.53
45071;BME280;30836;48.906;9.140;2023-02-03T05:30:01;998.53;;;11.56;55.73
45071;BME280;30836;48.906;9.140;2023-02-03T05:31:02;998.53;;;11.49;55.69
45071;BME280;30836;48.906;9.140;2023-02-03T05:32:03;998.53;;;11.53;55.40
45071;BME280;30836;48.906;9.140;2023-02-03T05:33:03;998.47;;;11.61;55.03
45071;BME280;30836;48.906;9.140;2023-02-03T05:34:04;998.43;;;11.66;55.44
45071;BME280;30836;48.906;9.140;2023-02-03T05:35:04;998.53;;;11.69;55.02
45071;BME280;30836;48.906;9.140;2023-02-03T05:36:05;998.57;;;11.75;54.70
45071;BME280;30836;48.906;9.140;2023-02-03T05:37:06;998.57;;;11.75;54.94
45071;BME280;30836;48.906;9.140;2023-02-03T05:38:06;998.59;;;11.75;54.69
45071;BME280;30836;48.906;9.140;2023-02-03T05:39:07;998.65;;;11.75;54.85
45071;BME280;30836;48.906;9.140;2023-02-03T05:40:07;998.57;;;11.70;55.03
45071;BME280;30836;48.906;9.140;2023-02-03T05:41:09;998.55;;;11.69;55.05
45071;BME280;30836;48.906;9.140;2023-02-03T05:42:10;998.53;;;11.67;55.10
45071;BME280;30836;48.906;9.140;2023-02-03T05:43:11;998.57;;;11.63;55.28
45071;BME280;30836;48.906;9.140;2023-02-03T05:44:11;998.53;;;11.58;55.40
45071;BME280;30836;48.906;9.140;2023-02-03T05:45:12;998.65;;;11.51;55.26
45071;BME280;30836;48.906;9.140;2023-02-03T05:46:12;998.55;;;11.41;55.82
45071;BME280;30836;48.906;9.140;2023-02-03T05:47:13;998.53;;;11.37;55.80
45071;BME280;30836;48.906;9.140;2023-02-03T05:48:13;998.53;;;11.53;55.04
45071;BME280;30836;48.906;9.140;2023-02-03T05:49:13;998.53;;;11.69;54.93
45071;BME280;30836;48.906;9.140;2023-02-03T05:50:14;998.55;;;11.72;54.97
45071;BME280;30836;48.906;9.140;2023-02-03T05:51:14;998.45;;;11.71;55.36
45071;BME280;30836;48.906;9.140;2023-02-03T05:52:15;998.45;;;11.73;55.22
45071;BME280;30836;48.906;9.140;2023-02-03T05:53:15;998.43;;;11.69;55.28
45071;BME280;30836;48.906;9.140;2023-02-03T05:54:16;998.28;;;11.58;55.78
45071;BME280;30836;48.906;9.140;2023-02-03T05:55:16;998.45;;;11.38;56.15
45071;BME280;30836;48.906;9.140;2023-02-03T05:56:17;998.30;;;11.18;56.93
45071;BME280;30836;48.906;9.140;2023-02-03T05:57:17;998.18;;;11.01;57.28
45071;BME280;30836;48.906;9.140;2023-02-03T05:58:18;998.16;;;10.99;56.76
45071;BME280;30836;48.906;9.140;2023-02-03T05:59:19;998.28;;;11.10;56.50
45071;BME280;30836;48.906;9.140;2023-02-03T06:00:20;998.26;;;11.13;56.57
45071;BME280;30836;48.906;9.140;2023-02-03T06:01:21;998.22;;;11.07;56.91
45071;BME280;30836;48.906;9.140;2023-02-03T06:02:21;998.22;;;11.04;56.66
45071;BME280;30836;48.906;9.140;2023-02-03T06:03:22;998.24;;;11.14;56.07
45071;BME280;30836;48.906;9.140;2023-02-03T06:04:22;998.24;;;11.20;56.26
45071;BME280;30836;48.906;9.140;2023-02-03T06:05:23;998.24;;;11.21;55.98
45071;BME280;30836;48.906;9.140;2023-02-03T06:06:24;998.24;;;11.24;55.99
45071;BME280;30836;48.906;9.140;2023-02-03T06:07:25;998.22;;;11.25;55.90
45071;BME280;30836;48.906;9.140;2023-02-03T06:08:25;998.14;;;11.26;55.67
45071;BME280;30836;48.906;9.140;2023-02-03T06:09:25;998.12;;;11.21;55.99
45071;BME280;30836;48.906;9.140;2023-02-03T06:10:26;998.12;;;11.16;56.01
45071;BME280;30836;48.906;9.140;2023-02-03T06:11:27;998.18;;;11.13;56.06